sensor_id;sensor_type;location;lat;lon;timestamp;temperature;humidity
2539;DHT22;1280;49.760;9.664;2023-04-15T00:01:32;9.00;73.10
2539;DHT22;1280;49.760;9.664;2023-04-15T00:04:07;8.90;73.10
2539;DHT22;1280;49.760;9.664;2023-04-15T00:06:39;8.90;73.20
2539;DHT22;1280;49.760;9.664;2023-04-15T00:09:17;8.90;73.30
2539;DHT22;1280;49.760;9.664;2023-04-15T00:11:53;8.90;73.30
2539;DHT22;1280;49.760;9.664;2023-04-15T00:14:26;8.90;73.40
2539;DHT22;1280;49.760;9.664;2023-04-15T00:17:05;8.90;73.40
2539;DHT22;1280;49.760;9.664;2023-04-15T00:19:38;8.90;73.40
2539;DHT22;1280;49.760;9.664;2023-04-15T00:22:13;8.90;73.40
2539;DHT22;1280;49.760;9.664;2023-04-15T00:24:46;8.90;73.40
2539;DHT22;1280;49.760;9.664;2023-04-15T00:27:22;8.90;73.40
2539;DHT22;1280;49.760;9.664;2023-04-15T00:29:52;8.80;73.40
2539;DHT22;1280;49.760;9.664;2023-04-15T00:32:25;8.80;73.30
2539;DHT22;1280;49.760;9.664;2023-04-15T00:34:58;8.80;73.30
2539;DHT22;1280;49.760;9.664;2023-04-15T00:37:38;8.80;73.40
2539;DHT22;1280;49.760;9.664;2023-04-15T00:40:31;8.70;73.40
2539;DHT22;1280;49.760;9.664;2023-04-15T00:43:05;8.70;73.50
2539;DHT22;1280;49.760;9.664;2023-04-15T00:45:43;8.70;73.50
2539;DHT22;1280;49.760;9.664;2023-04-15T00:48:21;8.70;73.50
2539;DHT22;1280;49.760;9.664;2023-04-15T00:50:51;8.70;73.50
2539;DHT22;1280;49.760;9.664;2023-04-15T00:53:24;8.70;73.50
2539;DHT22;1280;49.760;9.664;2023-04-15T00:56:11;8.70;73.50
2539;DHT22;1280;49.760;9.664;2023-04-15T00:58:42;8.60;73.50
2539;DHT22;1280;49.760;9.664;2023-04-15T01:01:21;8.60;73.50
2539;DHT22;1280;49.760;9.664;2023-04-15T01:03:55;8.60;73.60
2539;DHT22;1280;49.760;9.664;2023-04-15T01:06:27;8.60;73.60
2539;DHT22;1280;49.760;9.664;2023-04-15T01:09:01;8.60;73.70
2539;DHT22;1280;49.760;9.664;2023-04-15T01:11:48;8.60;73.80
2539;DHT22;1280;49.760;9.664;2023-04-15T01:14:20;8.60;73.90
2539;DHT22;1280;49.760;9.664;2023-04-15T01:16:58;8.60;73.90
2539;DHT22;1280;49.760;9.664;2023-04-15T01:19:27;8.60;73.90
2539;DHT22;1280;49.760;9.664;2023-04-15T01:22:03;8.60;73.80
2539;DHT22;1280;49.760;9.664;2023-04-15T01:24:37;8.60;73.80
2539;DHT22;1280;49.760;9.664;2023-04-15T01:27:12;8.60;73.80
2539;DHT22;1280;49.760;9.664;2023-04-15T01:29:46;8.60;73.80
2539;DHT22;1280;49.760;9.664;2023-04-15T01:32:24;8.60;73.90
2539;DHT22;1280;49.760;9.664;2023-04-15T01:34:53;8.60;74.00
2539;DHT22;1280;49.760;9.664;2023-04-15T01:37:32;8.60;74.00
2539;DHT22;1280;49.760;9.664;2023-04-15T01:40:22;8.60;74.10
2539;DHT22;1280;49.760;9.664;2023-04-15T01:42:58;8.70;74.00
2539;DHT22;1280;49.760;9.664;2023-04-15T01:45:34;8.60;74.00
2539;DHT22;1280;49.760;9.664;2023-04-15T01:48:03;8.60;74.10
2539;DHT22;1280;49.760;9.664;2023-04-15T01:50:37;8.60;74.10
2539;DHT22;1280;49.760;9.664;2023-04-15T01:53:11;8.60;74.20
2539;DHT22;1280;49.760;9.664;2023-04-15T01:55:45;8.60;74.20
2539;DHT22;1280;49.760;9.664;2023-04-15T01:58:19;8.70;74.20
2539;DHT22;1280;49.760;9.664;2023-04-15T02:00:49;8.70;74.30
2539;DHT22;1280;49.760;9.664;2023-04-15T02:03:20;8.70;74.30
2539;DHT22;1280;49.760;9.664;2023-04-15T02:05:53;8.70;74.30
2539;DHT22;1280;49.760;9.664;2023-04-15T02:08:27;8.60;74.30
2539;DHT22;1280;49.760;9.664;2023-04-15T02:10:56;8.60;74.30
2539;DHT22;1280;49.760;9.664;2023-04-15T02:13:48;8.60;74.30
2539;DHT22;1280;49.760;9.664;2023-04-15T02:16:22;8.60;74.40
2539;DHT22;1280;49.760;9.664;2023-04-15T02:18:54;8.60;74.40
2539;DHT22;1280;49.760;9.664;2023-04-15T02:21:31;8.60;74.40
2539;DHT22;1280;49.760;9.664;2023-04-15T02:24:05;8.60;74.50
2539;DHT22;1280;49.760;9.664;2023-04-15T02:26:37;8.60;74.50
2539;DHT22;1280;49.760;9.664;2023-04-15T02:29:31;8.60;74.50
2539;DHT22;1280;49.760;9.664;2023-04-15T02:32:02;8.60;74.60
2539;DHT22;1280;49.760;9.664;2023-04-15T02:34:34;8.60;74.70
2539;DHT22;1280;49.760;9.664;2023-04-15T02:37:11;8.60;74.70
2539;DHT22;1280;49.760;9.664;2023-04-15T02:39:46;8.70;74.80
2539;DHT22;1280;49.760;9.664;2023-04-15T02:42:22;8.70;74.80
2539;DHT22;1280;49.760;9.664;2023-04-15T02:45:14;8.70;74.70
2539;DHT22;1280;49.760;9.664;2023-04-15T02:47:52;8.70;74.70
2539;DHT22;1280;49.760;9.664;2023-04-15T02:50:42;8.70;74.80
2539;DHT22;1280;49.760;9.664;2023-04-15T02:53:15;8.70;74.80
2539;DHT22;1280;49.760;9.664;2023-04-15T02:55:51;8.70;74.90
2539;DHT22;1280;49.760;9.664;2023-04-15T02:58:26;8.70;74.90
2539;DHT22;1280;49.760;9.664;2023-04-15T03:01:02;8.70;74.80
2539;DHT22;1280;49.760;9.664;2023-04-15T03:03:39;8.70;74.80
2539;DHT22;1280;49.760;9.664;2023-04-15T03:06:12;8.60;74.90
2539;DHT22;1280;49.760;9.664;2023-04-15T03:08:45;8.60;74.90
2539;DHT22;1280;49.760;9.664;2023-04-15T03:11:18;8.60;74.90
2539;DHT22;1280;49.760;9.664;2023-04-15T03:13:51;8.60;74.90
2539;DHT22;1280;49.760;9.664;2023-04-15T03:16:46;8.60;75.10
2539;DHT22;1280;49.760;9.664;2023-04-15T03:19:22;8.60;75.10
2539;DHT22;1280;49.760;9.664;2023-04-15T03:21:54;8.60;75.20
2539;DHT22;1280;49.760;9.664;2023-04-15T03:24:28;8.60;75.20
2539;DHT22;1280;49.760;9.664;2023-04-15T03:27:02;8.60;75.10
2539;DHT22;1280;49.760;9.664;2023-04-15T03:29:38;8.60;75.10
2539;DHT22;1280;49.760;9.664;2023-04-15T03:32:28;8.50;75.10
2539;DHT22;1280;49.760;9.664;2023-04-15T03:34:59;8.50;75.20
2539;DHT22;1280;49.760;9.664;2023-04-15T03:37:30;8.50;75.20
2539;DHT22;1280;49.760;9.664;2023-04-15T03:40:15;8.50;75.20
2539;DHT22;1280;49.760;9.664;2023-04-15T03:42:49;8.50;75.20
2539;DHT22;1280;49.760;9.664;2023-04-15T03:45:27;8.50;75.30
2539;DHT22;1280;49.760;9.664;2023-04-15T03:48:12;8.50;75.30
2539;DHT22;1280;49.760;9.664;2023-04-15T03:50:51;8.50;75.30
2539;DHT22;1280;49.760;9.664;2023-04-15T03:53:27;8.50;75.30
2539;DHT22;1280;49.760;9.664;2023-04-15T03:56:08;8.50;75.30
2539;DHT22;1280;49.760;9.664;2023-04-15T03:58:40;8.50;75.30
2539;DHT22;1280;49.760;9.664;2023-04-15T04:01:09;8.40;75.30
2539;DHT22;1280;49.760;9.664;2023-04-15T04:04:08;8.40;75.40
2539;DHT22;1280;49.760;9.664;2023-04-15T04:06:42;8.40;75.30
2539;DHT22;1280;49.760;9.664;2023-04-15T04:09:22;8.30;75.40
2539;DHT22;1280;49.760;9.664;2023-04-15T04:12:06;8.30;75.40
2539;DHT22;1280;49.760;9.664;2023-04-15T04:14:42;8.30;75.40
2539;DHT22;1280;49.760;9.664;2023-04-15T04:17:17;8.30;75.40
2539;DHT22;1280;49.760;9.664;2023-04-15T04:20:02;8.30;75.50
2539;DHT22;1280;49.760;9.664;2023-04-15T04:22:39;8.30;75.50
2539;DHT22;1280;49.760;9.664;2023-04-15T04:25:13;8.30;75.50
2539;DHT22;1280;49.760;9.664;2023-04-15T04:27:47;8.30;75.60
2539;DHT22;1280;49.760;9.664;2023-04-15T04:30:18;8.30;75.60
2539;DHT22;1280;49.760;9.664;2023-04-15T04:32:50;8.30;75.70
2539;DHT22;1280;49.760;9.664;2023-04-15T04:35:36;8.30;75.70
2539;DHT22;1280;49.760;9.664;2023-04-15T04:38:15;8.30;75.80
2539;DHT22;1280;49.760;9.664;2023-04-15T04:40:54;8.30;75.80
2539;DHT22;1280;49.760;9.664;2023-04-15T04:43:24;8.30;75.80
2539;DHT22;1280;49.760;9.664;2023-04-15T04:46:04;8.30;75.80
2539;DHT22;1280;49.760;9.664;2023-04-15T04:48:40;8.30;75.90
2539;DHT22;1280;49.760;9.664;2023-04-15T04:51:20;8.30;75.80
2539;DHT22;1280;49.760;9.664;2023-04-15T04:53:54;8.30;75.80
2539;DHT22;1280;49.760;9.664;2023-04-15T04:56:32;8.30;75.90
2539;DHT22;1280;49.760;9.664;2023-04-15T04:59:11;8.30;76.00
2539;DHT22;1280;49.760;9.664;2023-04-15T05:01:53;8.30;76.00
2539;DHT22;1280;49.760;9.664;2023-04-15T05:04:24;8.40;76.00
2539;DHT22;1280;49.760;9.664;2023-04-15T05:07:07;8.40;76.00
2539;DHT22;1280;49.760;9.664;2023-04-15T05:09:39;8.40;76.00
2539;DHT22;1280;49.760;9.664;2023-04-15T05:12:17;8.40;76.10
2539;DHT22;1280;49.760;9.664;2023-04-15T05:14:57;8.40;76.10
2539;DHT22;1280;49.760;9.664;2023-04-15T05:17:42;8.40;76.30
2539;DHT22;1280;49.760;9.664;2023-04-15T05:20:21;8.50;76.30
2539;DHT22;1280;49.760;9.664;2023-04-15T05:23:00;8.50;76.30
2539;DHT22;1280;49.760;9.664;2023-04-15T05:25:30;8.50;76.30
2539;DHT22;1280;49.760;9.664;2023-04-15T05:28:02;8.50;76.30
2539;DHT22;1280;49.760;9.664;2023-04-15T05:30:35;8.60;76.40
2539;DHT22;1280;49.760;9.664;2023-04-15T05:33:07;8.60;76.40
2539;DHT22;1280;49.760;9.664;2023-04-15T05:35:43;8.60;76.40
2539;DHT22;1280;49.760;9.664;2023-04-15T05:38:21;8.60;76.40
2539;DHT22;1280;49.760;9.664;2023-04-15T05:40:56;8.60;76.50
2539;DHT22;1280;49.760;9.664;2023-04-15T05:43:34;8.60;76.50
2539;DHT22;1280;49.760;9.664;2023-04-15T05:46:06;8.70;76.60
2539;DHT22;1280;49.760;9.664;2023-04-15T05:48:44;8.70;76.60
2539;DHT22;1280;49.760;9.664;2023-04-15T05:51:19;8.70;76.60
2539;DHT22;1280;49.760;9.664;2023-04-15T05:53:54;8.70;76.70
2539;DHT22;1280;49.760;9.664;2023-04-15T05:56:28;8.70;76.70
2539;DHT22;1280;49.760;9.664;2023-04-15T05:59:08;8.70;76.70
2539;DHT22;1280;49.760;9.664;2023-04-15T06:01:44;8.80;76.80
2539;DHT22;1280;49.760;9.664;2023-04-15T06:04:21;8.80;76.80
2539;DHT22;1280;49.760;9.664;2023-04-15T06:06:56;8.90;76.90
2539;DHT22;1280;49.760;9.664;2023-04-15T06:09:45;8.90;76.90
2539;DHT22;1280;49.760;9.664;2023-04-15T06:12:20;9.00;77.00
2539;DHT22;1280;49.760;9.664;2023-04-15T06:14:54;9.00;77.00
2539;DHT22;1280;49.760;9.664;2023-04-15T06:17:26;9.00;77.00
2539;DHT22;1280;49.760;9.664;2023-04-15T06:20:01;9.10;77.00
2539;DHT22;1280;49.760;9.664;2023-04-15T06:22:36;9.10;77.10
2539;DHT22;1280;49.760;9.664;2023-04-15T06:25:30;9.10;77.10
2539;DHT22;1280;49.760;9.664;2023-04-15T06:28:02;9.20;77.20
2539;DHT22;1280;49.760;9.664;2023-04-15T06:30:43;9.20;77.20
2539;DHT22;1280;49.760;9.664;2023-04-15T06:33:17;9.20;77.30
2539;DHT22;1280;49.760;9.664;2023-04-15T06:35:56;9.20;77.30
2539;DHT22;1280;49.760;9.664;2023-04-15T06:38:29;9.30;77.30
2539;DHT22;1280;49.760;9.664;2023-04-15T06:41:12;9.30;77.40
2539;DHT22;1280;49.760;9.664;2023-04-15T06:43:49;9.30;77.40
2539;DHT22;1280;49.760;9.664;2023-04-15T06:46:21;9.30;77.50
2539;DHT22;1280;49.760;9.664;2023-04-15T06:48:54;9.40;77.50
2539;DHT22;1280;49.760;9.664;2023-04-15T06:51:30;9.40;77.60
2539;DHT22;1280;49.760;9.664;2023-04-15T06:54:08;9.50;77.70
2539;DHT22;1280;49.760;9.664;2023-04-15T06:57:00;9.50;77.70
2539;DHT22;1280;49.760;9.664;2023-04-15T06:59:31;9.60;77.80
2539;DHT22;1280;49.760;9.664;2023-04-15T07:02:02;9.60;77.80
2539;DHT22;1280;49.760;9.664;2023-04-15T07:04:36;9.60;77.80
2539;DHT22;1280;49.760;9.664;2023-04-15T07:07:13;9.70;77.90
2539;DHT22;1280;49.760;9.664;2023-04-15T07:09:48;9.70;77.80
2539;DHT22;1280;49.760;9.664;2023-04-15T07:12:25;9.70;78.00
2539;DHT22;1280;49.760;9.664;2023-04-15T07:14:58;9.80;78.10
2539;DHT22;1280;49.760;9.664;2023-04-15T07:17:33;9.80;78.10
2539;DHT22;1280;49.760;9.664;2023-04-15T07:20:27;9.90;78.10
2539;DHT22;1280;49.760;9.664;2023-04-15T07:23:00;10.00;78.00
2539;DHT22;1280;49.760;9.664;2023-04-15T07:25:40;10.00;78.00
2539;DHT22;1280;49.760;9.664;2023-04-15T07:28:17;10.10;78.00
2539;DHT22;1280;49.760;9.664;2023-04-15T07:30:50;10.20;78.00
2539;DHT22;1280;49.760;9.664;2023-04-15T07:33:24;10.20;77.90
2539;DHT22;1280;49.760;9.664;2023-04-15T07:35:56;10.30;77.90
2539;DHT22;1280;49.760;9.664;2023-04-15T07:38:29;10.40;77.70
2539;DHT22;1280;49.760;9.664;2023-04-15T07:41:05;10.40;77.60
2539;DHT22;1280;49.760;9.664;2023-04-15T07:43:50;10.40;77.60
2539;DHT22;1280;49.760;9.664;2023-04-15T07:46:27;10.40;77.60
2539;DHT22;1280;49.760;9.664;2023-04-15T07:48:58;10.40;77.70
2539;DHT22;1280;49.760;9.664;2023-04-15T07:51:32;10.50;77.70
2539;DHT22;1280;49.760;9.664;2023-04-15T07:54:11;10.50;77.60
2539;DHT22;1280;49.760;9.664;2023-04-15T07:56:42;10.60;77.60
2539;DHT22;1280;49.760;9.664;2023-04-15T07:59:23;10.70;77.60
2539;DHT22;1280;49.760;9.664;2023-04-15T08:01:57;10.70;77.50
2539;DHT22;1280;49.760;9.664;2023-04-15T08:04:31;10.80;77.40
2539;DHT22;1280;49.760;9.664;2023-04-15T08:07:05;10.80;77.30
2539;DHT22;1280;49.760;9.664;2023-04-15T08:09:36;10.90;77.30
2539;DHT22;1280;49.760;9.664;2023-04-15T08:12:13;10.90;77.30
2539;DHT22;1280;49.760;9.664;2023-04-15T08:14:47;11.00;77.30
2539;DHT22;1280;49.760;9.664;2023-04-15T08:17:20;11.00;77.20
2539;DHT22;1280;49.760;9.664;2023-04-15T08:19:59;11.10;77.10
2539;DHT22;1280;49.760;9.664;2023-04-15T08:22:31;11.20;76.70
2539;DHT22;1280;49.760;9.664;2023-04-15T08:25:07;11.20;76.80
2539;DHT22;1280;49.760;9.664;2023-04-15T08:27:40;11.20;76.70
2539;DHT22;1280;49.760;9.664;2023-04-15T08:30:17;11.20;76.70
2539;DHT22;1280;49.760;9.664;2023-04-15T08:33:02;11.20;76.50
2539;DHT22;1280;49.760;9.664;2023-04-15T08:35:40;11.20;76.60
2539;DHT22;1280;49.760;9.664;2023-04-15T08:38:15;11.20;76.50
2539;DHT22;1280;49.760;9.664;2023-04-15T08:40:47;11.30;76.40
2539;DHT22;1280;49.760;9.664;2023-04-15T08:43:22;11.30;76.30
2539;DHT22;1280;49.760;9.664;2023-04-15T08:46:02;11.40;76.20
2539;DHT22;1280;49.760;9.664;2023-04-15T08:48:37;11.50;75.90
2539;DHT22;1280;49.760;9.664;2023-04-15T08:51:08;11.50;75.80
2539;DHT22;1280;49.760;9.664;2023-04-15T08:53:46;11.50;75.30
2539;DHT22;1280;49.760;9.664;2023-04-15T08:56:17;11.60;75.30
2539;DHT22;1280;49.760;9.664;2023-04-15T08:58:55;11.60;75.20
2539;DHT22;1280;49.760;9.664;2023-04-15T09:01:37;11.60;74.90
2539;DHT22;1280;49.760;9.664;2023-04-15T09:04:13;11.70;74.70
2539;DHT22;1280;49.760;9.664;2023-04-15T09:06:50;11.70;74.40
2539;DHT22;1280;49.760;9.664;2023-04-15T09:09:23;11.60;74.00
2539;DHT22;1280;49.760;9.664;2023-04-15T09:11:56;11.60;73.70
2539;DHT22;1280;49.760;9.664;2023-04-15T09:14:36;11.60;73.60
2539;DHT22;1280;49.760;9.664;2023-04-15T09:17:22;11.70;73.70
2539;DHT22;1280;49.760;9.664;2023-04-15T09:20:09;11.60;71.90
2539;DHT22;1280;49.760;9.664;2023-04-15T09:22:42;11.70;72.70
2539;DHT22;1280;49.760;9.664;2023-04-15T09:25:28;11.70;72.30
2539;DHT22;1280;49.760;9.664;2023-04-15T09:28:02;11.80;72.20
2539;DHT22;1280;49.760;9.664;2023-04-15T09:30:34;11.80;72.10
2539;DHT22;1280;49.760;9.664;2023-04-15T09:33:24;11.90;71.90
2539;DHT22;1280;49.760;9.664;2023-04-15T09:36:02;12.00;71.50
2539;DHT22;1280;49.760;9.664;2023-04-15T09:38:33;12.10;71.30
2539;DHT22;1280;49.760;9.664;2023-04-15T09:41:03;12.20;70.90
2539;DHT22;1280;49.760;9.664;2023-04-15T09:43:50;12.20;70.50
2539;DHT22;1280;49.760;9.664;2023-04-15T09:46:44;12.20;70.60
2539;DHT22;1280;49.760;9.664;2023-04-15T09:49:30;12.20;70.30
2539;DHT22;1280;49.760;9.664;2023-04-15T09:52:07;12.20;70.10
2539;DHT22;1280;49.760;9.664;2023-04-15T09:54:50;12.10;70.20
2539;DHT22;1280;49.760;9.664;2023-04-15T09:57:22;12.10;70.20
2539;DHT22;1280;49.760;9.664;2023-04-15T09:59:51;12.10;70.20
2539;DHT22;1280;49.760;9.664;2023-04-15T10:02:31;12.10;70.10
2539;DHT22;1280;49.760;9.664;2023-04-15T10:05:08;12.00;69.90
2539;DHT22;1280;49.760;9.664;2023-04-15T10:07:43;12.00;70.20
2539;DHT22;1280;49.760;9.664;2023-04-15T10:10:24;12.00;70.20
2539;DHT22;1280;49.760;9.664;2023-04-15T10:12:58;12.10;70.10
2539;DHT22;1280;49.760;9.664;2023-04-15T10:15:30;12.10;69.90
2539;DHT22;1280;49.760;9.664;2023-04-15T10:18:00;12.10;69.90
2539;DHT22;1280;49.760;9.664;2023-04-15T10:20:49;12.20;70.00
2539;DHT22;1280;49.760;9.664;2023-04-15T10:23:23;12.20;69.90
2539;DHT22;1280;49.760;9.664;2023-04-15T10:26:05;12.20;69.90
2539;DHT22;1280;49.760;9.664;2023-04-15T10:28:37;12.20;69.70
2539;DHT22;1280;49.760;9.664;2023-04-15T10:31:11;12.20;69.70
2539;DHT22;1280;49.760;9.664;2023-04-15T10:33:49;12.00;69.70
2539;DHT22;1280;49.760;9.664;2023-04-15T10:36:30;12.10;69.80
2539;DHT22;1280;49.760;9.664;2023-04-15T10:39:40;12.10;69.80
2539;DHT22;1280;49.760;9.664;2023-04-15T10:42:23;12.00;69.70
2539;DHT22;1280;49.760;9.664;2023-04-15T10:45:02;11.90;69.40
2539;DHT22;1280;49.760;9.664;2023-04-15T10:47:32;11.80;69.10
2539;DHT22;1280;49.760;9.664;2023-04-15T10:50:13;11.80;69.30
2539;DHT22;1280;49.760;9.664;2023-04-15T10:52:54;11.90;69.10
2539;DHT22;1280;49.760;9.664;2023-04-15T10:55:25;11.80;68.80
2539;DHT22;1280;49.760;9.664;2023-04-15T10:57:59;11.80;68.60
2539;DHT22;1280;49.760;9.664;2023-04-15T11:00:33;11.70;68.70
2539;DHT22;1280;49.760;9.664;2023-04-15T11:03:11;11.60;68.70
2539;DHT22;1280;49.760;9.664;2023-04-15T11:05:52;11.50;68.70
2539;DHT22;1280;49.760;9.664;2023-04-15T11:09:01;11.40;68.80
2539;DHT22;1280;49.760;9.664;2023-04-15T11:12:04;11.40;68.90
2539;DHT22;1280;49.760;9.664;2023-04-15T11:14:40;11.30;68.90
2539;DHT22;1280;49.760;9.664;2023-04-15T11:17:26;11.30;69.00
2539;DHT22;1280;49.760;9.664;2023-04-15T11:20:01;11.30;68.90
2539;DHT22;1280;49.760;9.664;2023-04-15T11:22:47;11.30;68.80
2539;DHT22;1280;49.760;9.664;2023-04-15T11:25:37;11.40;68.70
2539;DHT22;1280;49.760;9.664;2023-04-15T11:28:12;11.40;68.70
2539;DHT22;1280;49.760;9.664;2023-04-15T11:30:50;11.40;68.70
2539;DHT22;1280;49.760;9.664;2023-04-15T11:33:37;11.40;68.80
2539;DHT22;1280;49.760;9.664;2023-04-15T11:36:18;11.50;68.80
2539;DHT22;1280;49.760;9.664;2023-04-15T11:38:50;11.60;68.80
2539;DHT22;1280;49.760;9.664;2023-04-15T11:41:25;11.50;68.90
2539;DHT22;1280;49.760;9.664;2023-04-15T11:43:59;11.50;69.10
2539;DHT22;1280;49.760;9.664;2023-04-15T11:46:33;11.50;69.10
2539;DHT22;1280;49.760;9.664;2023-04-15T11:49:03;11.60;69.30
2539;DHT22;1280;49.760;9.664;2023-04-15T11:51:49;11.60;69.50
2539;DHT22;1280;49.760;9.664;2023-04-15T11:54:19;11.60;69.70
2539;DHT22;1280;49.760;9.664;2023-04-15T11:57:07;11.60;69.80
2539;DHT22;1280;49.760;9.664;2023-04-15T11:59:42;11.60;70.10
2539;DHT22;1280;49.760;9.664;2023-04-15T12:02:16;11.50;70.40
2539;DHT22;1280;49.760;9.664;2023-04-15T12:05:03;11.50;70.60
2539;DHT22;1280;49.760;9.664;2023-04-15T12:07:32;11.50;71.00
2539;DHT22;1280;49.760;9.664;2023-04-15T12:10:17;11.40;71.30
2539;DHT22;1280;49.760;9.664;2023-04-15T12:12:53;11.50;71.30
2539;DHT22;1280;49.760;9.664;2023-04-15T12:15:27;11.30;71.70
2539;DHT22;1280;49.760;9.664;2023-04-15T12:18:00;11.30;71.60
2539;DHT22;1280;49.760;9.664;2023-04-15T12:20:43;11.30;71.70
2539;DHT22;1280;49.760;9.664;2023-04-15T12:23:18;11.30;72.00
2539;DHT22;1280;49.760;9.664;2023-04-15T12:25:52;11.30;72.20
2539;DHT22;1280;49.760;9.664;2023-04-15T12:28:34;11.30;72.30
2539;DHT22;1280;49.760;9.664;2023-04-15T12:31:12;11.30;72.40
2539;DHT22;1280;49.760;9.664;2023-04-15T12:33:54;11.30;72.50
2539;DHT22;1280;49.760;9.664;2023-04-15T12:36:31;11.30;72.70
2539;DHT22;1280;49.760;9.664;2023-04-15T12:39:09;11.10;73.10
2539;DHT22;1280;49.760;9.664;2023-04-15T12:41:42;11.00;73.10
2539;DHT22;1280;49.760;9.664;2023-04-15T12:44:21;11.00;73.60
2539;DHT22;1280;49.760;9.664;2023-04-15T12:46:55;11.10;73.40
2539;DHT22;1280;49.760;9.664;2023-04-15T12:49:29;11.20;73.30
2539;DHT22;1280;49.760;9.664;2023-04-15T12:52:08;11.20;73.30
2539;DHT22;1280;49.760;9.664;2023-04-15T12:54:41;11.10;73.40
2539;DHT22;1280;49.760;9.664;2023-04-15T12:57:21;11.10;73.50
2539;DHT22;1280;49.760;9.664;2023-04-15T12:59:58;11.10;73.60
2539;DHT22;1280;49.760;9.664;2023-04-15T13:02:30;11.10;73.50
2539;DHT22;1280;49.760;9.664;2023-04-15T13:05:07;11.20;73.60
2539;DHT22;1280;49.760;9.664;2023-04-15T13:07:40;11.20;73.70
2539;DHT22;1280;49.760;9.664;2023-04-15T13:10:18;11.20;73.70
2539;DHT22;1280;49.760;9.664;2023-04-15T13:12:49;11.20;73.80
2539;DHT22;1280;49.760;9.664;2023-04-15T13:15:38;11.30;73.90
2539;DHT22;1280;49.760;9.664;2023-04-15T13:18:12;11.30;74.00
2539;DHT22;1280;49.760;9.664;2023-04-15T13:20:48;11.20;74.30
2539;DHT22;1280;49.760;9.664;2023-04-15T13:23:20;11.20;74.50
2539;DHT22;1280;49.760;9.664;2023-04-15T13:25:55;11.20;74.50
2539;DHT22;1280;49.760;9.664;2023-04-15T13:28:36;11.20;74.70
2539;DHT22;1280;49.760;9.664;2023-04-15T13:31:10;11.20;74.80
2539;DHT22;1280;49.760;9.664;2023-04-15T13:33:40;11.20;74.90
2539;DHT22;1280;49.760;9.664;2023-04-15T13:36:14;11.20;75.10
2539;DHT22;1280;49.760;9.664;2023-04-15T13:38:46;11.10;75.30
2539;DHT22;1280;49.760;9.664;2023-04-15T13:41:20;11.10;75.50
2539;DHT22;1280;49.760;9.664;2023-04-15T13:43:49;11.10;75.60
2539;DHT22;1280;49.760;9.664;2023-04-15T13:46:34;11.10;75.70
2539;DHT22;1280;49.760;9.664;2023-04-15T13:49:15;11.10;75.90
2539;DHT22;1280;49.760;9.664;2023-04-15T13:51:55;10.90;76.30
2539;DHT22;1280;49.760;9.664;2023-04-15T13:54:28;10.90;76.30
2539;DHT22;1280;49.760;9.664;2023-04-15T13:57:05;10.90;76.40
2539;DHT22;1280;49.760;9.664;2023-04-15T13:59:36;10.90;76.60
2539;DHT22;1280;49.760;9.664;2023-04-15T14:02:16;10.80;76.90
2539;DHT22;1280;49.760;9.664;2023-04-15T14:04:48;10.90;77.10
2539;DHT22;1280;49.760;9.664;2023-04-15T14:07:20;10.90;76.80
2539;DHT22;1280;49.760;9.664;2023-04-15T14:10:01;10.90;76.90
2539;DHT22;1280;49.760;9.664;2023-04-15T14:12:41;11.00;76.80
2539;DHT22;1280;49.760;9.664;2023-04-15T14:15:28;10.90;76.90
2539;DHT22;1280;49.760;9.664;2023-04-15T14:18:44;10.90;77.20
2539;DHT22;1280;49.760;9.664;2023-04-15T14:21:46;10.80;77.40
2539;DHT22;1280;49.760;9.664;2023-04-15T14:24:29;10.80;77.50
2539;DHT22;1280;49.760;9.664;2023-04-15T14:27:44;10.90;77.50
2539;DHT22;1280;49.760;9.664;2023-04-15T14:30:46;10.90;77.60
2539;DHT22;1280;49.760;9.664;2023-04-15T14:33:31;10.90;77.60
2539;DHT22;1280;49.760;9.664;2023-04-15T14:36:25;11.00;77.60
2539;DHT22;1280;49.760;9.664;2023-04-15T14:39:23;11.00;77.60
2539;DHT22;1280;49.760;9.664;2023-04-15T14:41:58;11.00;77.60
2539;DHT22;1280;49.760;9.664;2023-04-15T14:44:45;10.90;77.60
2539;DHT22;1280;49.760;9.664;2023-04-15T14:47:19;10.90;77.80
2539;DHT22;1280;49.760;9.664;2023-04-15T14:50:19;10.90;77.90
2539;DHT22;1280;49.760;9.664;2023-04-15T14:53:14;10.90;77.90
2539;DHT22;1280;49.760;9.664;2023-04-15T14:55:50;10.90;78.00
2539;DHT22;1280;49.760;9.664;2023-04-15T14:58:35;11.00;77.90
2539;DHT22;1280;49.760;9.664;2023-04-15T15:01:11;11.00;77.90
2539;DHT22;1280;49.760;9.664;2023-04-15T15:03:54;11.00;78.00
2539;DHT22;1280;49.760;9.664;2023-04-15T15:06:45;11.00;78.10
2539;DHT22;1280;49.760;9.664;2023-04-15T15:09:23;11.00;78.00
2539;DHT22;1280;49.760;9.664;2023-04-15T15:12:13;11.00;78.10
2539;DHT22;1280;49.760;9.664;2023-04-15T15:14:59;11.00;78.00
2539;DHT22;1280;49.760;9.664;2023-04-15T15:17:57;11.10;77.80
2539;DHT22;1280;49.760;9.664;2023-04-15T15:20:27;11.00;78.20
2539;DHT22;1280;49.760;9.664;2023-04-15T15:23:16;10.90;78.40
2539;DHT22;1280;49.760;9.664;2023-04-15T15:26:37;10.90;78.20
2539;DHT22;1280;49.760;9.664;2023-04-15T15:29:13;10.90;78.50
2539;DHT22;1280;49.760;9.664;2023-04-15T15:31:53;10.90;78.40
2539;DHT22;1280;49.760;9.664;2023-04-15T15:34:28;10.90;78.40
2539;DHT22;1280;49.760;9.664;2023-04-15T15:36:59;10.80;78.70
2539;DHT22;1280;49.760;9.664;2023-04-15T15:39:33;10.70;78.80
2539;DHT22;1280;49.760;9.664;2023-04-15T15:42:25;10.70;78.90
2539;DHT22;1280;49.760;9.664;2023-04-15T15:45:03;10.70;79.20
2539;DHT22;1280;49.760;9.664;2023-04-15T15:47:41;10.70;79.30
2539;DHT22;1280;49.760;9.664;2023-04-15T15:50:21;10.70;79.30
2539;DHT22;1280;49.760;9.664;2023-04-15T15:52:57;10.70;79.30
2539;DHT22;1280;49.760;9.664;2023-04-15T15:55:31;10.70;79.40
2539;DHT22;1280;49.760;9.664;2023-04-15T15:58:05;10.70;79.50
2539;DHT22;1280;49.760;9.664;2023-04-15T16:00:35;10.70;79.50
2539;DHT22;1280;49.760;9.664;2023-04-15T16:03:11;10.70;79.60
2539;DHT22;1280;49.760;9.664;2023-04-15T16:05:50;10.70;79.60
2539;DHT22;1280;49.760;9.664;2023-04-15T16:08:24;10.80;79.70
2539;DHT22;1280;49.760;9.664;2023-04-15T16:10:57;10.80;79.80
2539;DHT22;1280;49.760;9.664;2023-04-15T16:13:33;10.80;79.80
2539;DHT22;1280;49.760;9.664;2023-04-15T16:16:05;10.90;79.80
2539;DHT22;1280;49.760;9.664;2023-04-15T16:18:39;10.90;79.70
2539;DHT22;1280;49.760;9.664;2023-04-15T16:21:12;10.90;79.80
2539;DHT22;1280;49.760;9.664;2023-04-15T16:23:45;10.90;79.80
2539;DHT22;1280;49.760;9.664;2023-04-15T16:26:31;10.80;79.90
2539;DHT22;1280;49.760;9.664;2023-04-15T16:29:15;10.80;80.00
2539;DHT22;1280;49.760;9.664;2023-04-15T16:31:46;10.90;80.10
2539;DHT22;1280;49.760;9.664;2023-04-15T16:34:21;10.90;80.10
2539;DHT22;1280;49.760;9.664;2023-04-15T16:36:57;10.90;80.10
2539;DHT22;1280;49.760;9.664;2023-04-15T16:39:35;10.90;80.10
2539;DHT22;1280;49.760;9.664;2023-04-15T16:42:11;10.90;80.20
2539;DHT22;1280;49.760;9.664;2023-04-15T16:44:56;10.90;80.20
2539;DHT22;1280;49.760;9.664;2023-04-15T16:47:27;10.90;80.30
2539;DHT22;1280;49.760;9.664;2023-04-15T16:50:01;10.90;80.30
2539;DHT22;1280;49.760;9.664;2023-04-15T16:52:36;10.90;80.30
2539;DHT22;1280;49.760;9.664;2023-04-15T16:55:15;10.90;80.40
2539;DHT22;1280;49.760;9.664;2023-04-15T16:57:50;10.90;80.30
2539;DHT22;1280;49.760;9.664;2023-04-15T17:00:37;10.90;80.40
2539;DHT22;1280;49.760;9.664;2023-04-15T17:03:10;10.90;80.40
2539;DHT22;1280;49.760;9.664;2023-04-15T17:05:42;10.90;80.40
2539;DHT22;1280;49.760;9.664;2023-04-15T17:08:16;10.90;80.50
2539;DHT22;1280;49.760;9.664;2023-04-15T17:10:57;10.90;80.50
2539;DHT22;1280;49.760;9.664;2023-04-15T17:13:37;10.90;80.60
2539;DHT22;1280;49.760;9.664;2023-04-15T17:16:26;10.90;80.60
2539;DHT22;1280;49.760;9.664;2023-04-15T17:18:58;11.00;80.60